createdAt,value
2022-11-27T00:01:34.240Z,5.40
2022-11-27T00:04:02.819Z,4.70
2022-11-27T00:06:32.185Z,5.30
2022-11-27T00:09:03.403Z,6.83
2022-11-27T00:11:32.726Z,6.57
2022-11-27T00:14:01.646Z,5.97
2022-11-27T00:16:30.538Z,4.50
2022-11-27T00:18:59.508Z,4.67
2022-11-27T00:21:29.677Z,5.27
2022-11-27T00:23:59.523Z,5.07
2022-11-27T00:26:35.996Z,5.97
2022-11-27T00:29:06.284Z,4.87
2022-11-27T00:31:37.446Z,4.90
2022-11-27T00:34:08.683Z,5.67
2022-11-27T00:36:37.864Z,5.50
2022-11-27T00:39:06.675Z,3.80
2022-11-27T00:41:36.501Z,3.73
2022-11-27T00:44:05.599Z,5.07
2022-11-27T00:46:35.636Z,4.70
2022-11-27T00:49:05.854Z,4.97
2022-11-27T00:51:34.649Z,4.60
2022-11-27T00:54:03.159Z,4.17
2022-11-27T00:56:35.441Z,5.37
2022-11-27T00:59:06.075Z,4.17
2022-11-27T01:01:36.734Z,3.93
2022-11-27T01:04:06.846Z,4.20
2022-11-27T01:06:35.949Z,3.83
2022-11-27T01:09:05.594Z,3.73
2022-11-27T01:11:35.992Z,3.43
2022-11-27T01:14:08.337Z,4.60
2022-11-27T01:16:42.576Z,3.63
2022-11-27T01:19:12.762Z,4.60
2022-11-27T01:21:41.342Z,4.53
2022-11-27T01:24:11.055Z,3.27
2022-11-27T01:26:39.457Z,4.20
2022-11-27T01:29:09.491Z,5.87
2022-11-27T01:31:38.474Z,3.60
2022-11-27T01:34:08.833Z,4.00
2022-11-27T01:36:37.450Z,3.47
2022-11-27T01:39:06.224Z,5.00
2022-11-27T01:41:35.649Z,4.37
2022-11-27T01:44:25.326Z,3.83
2022-11-27T01:46:56.913Z,4.53
2022-11-27T01:49:29.939Z,4.03
2022-11-27T01:52:02.124Z,4.00
2022-11-27T01:54:33.886Z,3.23
2022-11-27T01:57:06.252Z,5.93
2022-11-27T01:59:35.069Z,3.83
2022-11-27T02:02:05.380Z,3.53
2022-11-27T02:04:33.909Z,3.43
2022-11-27T02:07:02.650Z,2.67
2022-11-27T02:09:31.472Z,2.67
2022-11-27T02:12:03.854Z,3.43
2022-11-27T02:14:41.436Z,2.87
2022-11-27T02:17:16.529Z,2.70
2022-11-27T02:19:57.028Z,3.07
2022-11-27T02:22:36.425Z,4.57
2022-11-27T02:25:11.705Z,3.20
2022-11-27T02:27:58.536Z,2.40
2022-11-27T02:30:29.446Z,3.03
2022-11-27T02:33:00.623Z,3.47
2022-11-27T02:35:33.584Z,3.83
2022-11-27T02:38:06.066Z,2.60
2022-11-27T02:40:39.693Z,3.00
2022-11-27T02:43:09.852Z,2.23
2022-11-27T02:45:41.985Z,3.00
2022-11-27T02:48:11.542Z,2.67
2022-11-27T02:50:41.741Z,2.40
2022-11-27T02:53:15.326Z,2.57
2022-11-27T02:55:44.161Z,3.77
2022-11-27T02:58:16.297Z,2.43
2022-11-27T03:00:47.569Z,3.07
2022-11-27T03:03:18.955Z,2.20
2022-11-27T03:05:49.249Z,2.27
2022-11-27T03:08:21.406Z,3.37
2022-11-27T03:10:53.527Z,3.57
2022-11-27T03:13:22.158Z,3.10
2022-11-27T03:15:58.237Z,2.50
2022-11-27T03:18:35.350Z,2.57
2022-11-27T03:21:06.816Z,2.33
2022-11-27T03:23:35.231Z,2.10
2022-11-27T03:26:03.682Z,2.77
2022-11-27T03:28:32.659Z,2.70
2022-11-27T03:31:02.491Z,2.50
2022-11-27T03:33:31.018Z,2.87
2022-11-27T03:35:59.438Z,2.40
2022-11-27T03:38:27.960Z,3.33
2022-11-27T03:41:01.746Z,3.23
2022-11-27T03:43:32.996Z,3.13
2022-11-27T03:46:07.542Z,5.07
2022-11-27T03:48:41.441Z,3.27
2022-11-27T03:51:12.658Z,2.77
2022-11-27T03:53:50.245Z,2.67
2022-11-27T03:56:26.109Z,2.43
2022-11-27T03:58:57.503Z,2.20
2022-11-27T04:01:28.179Z,3.13
2022-11-27T04:03:56.760Z,2.93
2022-11-27T04:06:25.301Z,2.63
2022-11-27T04:08:53.729Z,2.97
2022-11-27T04:11:22.104Z,1.77
2022-11-27T04:13:52.170Z,1.97
2022-11-27T04:16:20.840Z,2.20
2022-11-27T04:18:50.651Z,2.17
2022-11-27T04:21:19.880Z,3.00
2022-11-27T04:23:48.449Z,2.63
2022-11-27T04:26:16.872Z,2.00
2022-11-27T04:28:45.310Z,1.80
2022-11-27T04:31:13.841Z,2.43
2022-11-27T04:33:42.282Z,2.37
2022-11-27T04:36:12.109Z,1.60
2022-11-27T04:38:40.654Z,1.97
2022-11-27T04:41:09.011Z,3.30
2022-11-27T04:43:37.435Z,1.70
2022-11-27T04:46:06.270Z,2.03
2022-11-27T04:48:34.911Z,1.60
2022-11-27T04:51:03.305Z,2.13
2022-11-27T04:53:33.098Z,2.17
2022-11-27T04:56:01.583Z,1.63
2022-11-27T04:58:30.005Z,1.90
2022-11-27T05:00:58.474Z,1.60
2022-11-27T05:03:27.025Z,1.70
2022-11-27T05:05:56.724Z,1.83
2022-11-27T05:08:25.306Z,1.73
2022-11-27T05:11:02.399Z,2.43
2022-11-27T05:13:30.870Z,1.93
2022-11-27T05:15:59.381Z,1.50
2022-11-27T05:18:27.982Z,2.37
2022-11-27T05:20:59.913Z,2.17
2022-11-27T05:23:28.860Z,1.93
2022-11-27T05:25:57.769Z,3.10
2022-11-27T05:28:28.055Z,3.10
2022-11-27T05:30:56.605Z,2.73
2022-11-27T05:33:25.118Z,4.87
2022-11-27T05:35:53.522Z,4.67
2022-11-27T05:38:21.935Z,4.73
2022-11-27T05:40:50.436Z,4.70
2022-11-27T05:43:18.896Z,6.10
2022-11-27T05:45:48.669Z,5.90
2022-11-27T05:48:17.064Z,6.90
2022-11-27T05:50:45.659Z,6.17
2022-11-27T05:53:14.129Z,5.33
2022-11-27T05:55:42.681Z,4.73
2022-11-27T05:58:11.090Z,3.50
2022-11-27T06:00:39.600Z,3.63
2022-11-27T06:03:09.635Z,6.60
2022-11-27T06:05:40.734Z,12.53
2022-11-27T06:08:09.151Z,10.87
2022-11-27T06:10:39.435Z,12.13
2022-11-27T06:13:08.110Z,11.10
2022-11-27T06:15:38.804Z,8.27
2022-11-27T06:18:08.837Z,6.87
2022-11-27T06:20:42.250Z,5.40
2022-11-27T06:23:12.334Z,5.23
2022-11-27T06:25:40.757Z,5.60
2022-11-27T06:28:09.495Z,5.37
2022-11-27T06:30:38.897Z,4.97
2022-11-27T06:33:07.314Z,5.47
2022-11-27T06:35:37.100Z,5.73
2022-11-27T06:38:05.784Z,5.70
2022-11-27T06:40:34.208Z,4.63
2022-11-27T06:43:02.613Z,4.73
2022-11-27T06:45:31.275Z,5.73
2022-11-27T06:47:59.953Z,3.80
2022-11-27T06:50:28.548Z,4.20
2022-11-27T06:52:58.333Z,3.40
2022-11-27T06:55:26.858Z,5.43
2022-11-27T06:57:55.246Z,4.70
2022-11-27T07:00:23.885Z,4.43
2022-11-27T07:02:55.430Z,9.00
2022-11-27T07:05:24.805Z,12.67
2022-11-27T07:07:53.578Z,14.17
2022-11-27T07:10:23.769Z,13.30
2022-11-27T07:12:52.176Z,11.27
2022-11-27T07:15:20.619Z,7.17
2022-11-27T07:17:49.017Z,6.50
2022-11-27T07:20:17.666Z,11.57
2022-11-27T07:22:46.105Z,14.70
2022-11-27T07:25:15.607Z,11.37
2022-11-27T07:27:45.563Z,15.80
2022-11-27T07:30:14.833Z,14.00
2022-11-27T07:32:43.349Z,15.50
2022-11-27T07:35:11.873Z,23.33
2022-11-27T07:37:40.422Z,25.57
2022-11-27T07:40:09.575Z,11.40
2022-11-27T07:42:39.068Z,7.17
2022-11-27T07:45:10.412Z,6.83
2022-11-27T07:47:39.360Z,7.90
2022-11-27T07:50:09.264Z,8.23
2022-11-27T07:52:41.486Z,8.63
2022-11-27T07:55:11.223Z,11.37
2022-11-27T07:57:39.664Z,13.30
2022-11-27T08:00:10.801Z,9.23
2022-11-27T08:02:39.251Z,9.60
2022-11-27T08:05:12.758Z,9.27
2022-11-27T08:07:41.952Z,15.90
2022-11-27T08:10:10.703Z,37.67
2022-11-27T08:12:39.197Z,35.93
2022-11-27T08:15:10.593Z,25.53
2022-11-27T08:17:39.133Z,35.53
2022-11-27T08:20:08.798Z,21.90
2022-11-27T08:22:38.007Z,15.97
2022-11-27T08:25:07.219Z,14.10
2022-11-27T08:27:36.344Z,15.50
2022-11-27T08:30:06.046Z,13.83
2022-11-27T08:32:35.846Z,18.57
2022-11-27T08:35:04.345Z,13.80
2022-11-27T08:37:32.898Z,15.13
2022-11-27T08:40:01.382Z,13.57
2022-11-27T08:42:29.930Z,131.23
2022-11-27T08:44:58.369Z,68.20
2022-11-27T08:47:26.807Z,24.10
2022-11-27T08:49:56.813Z,10.97
2022-11-27T08:52:26.053Z,21.30
2022-11-27T08:54:57.502Z,15.07
2022-11-27T08:57:26.698Z,17.03
2022-11-27T08:59:55.116Z,19.83
2022-11-27T09:02:23.551Z,21.37
2022-11-27T09:04:52.013Z,33.37
2022-11-27T09:07:21.888Z,47.17
2022-11-27T09:09:50.359Z,25.83
2022-11-27T09:12:18.837Z,16.07
2022-11-27T09:14:47.240Z,13.90
2022-11-27T09:17:15.705Z,12.30
2022-11-27T09:19:44.154Z,10.53
2022-11-27T09:22:12.615Z,10.07
2022-11-27T09:24:43.040Z,10.10
2022-11-27T09:27:11.701Z,10.20
2022-11-27T09:29:40.215Z,11.67
2022-11-27T09:32:08.706Z,11.83
2022-11-27T09:34:37.816Z,12.07
2022-11-27T09:37:06.590Z,11.63
2022-11-27T09:39:35.143Z,10.60
2022-11-27T09:42:06.278Z,10.70
2022-11-27T09:44:39.964Z,11.00
2022-11-27T09:47:14.610Z,9.80
2022-11-27T09:49:46.122Z,8.80
2022-11-27T09:52:21.640Z,9.13
2022-11-27T09:54:56.561Z,11.17
2022-11-27T09:57:30.598Z,15.30
2022-11-27T10:00:01.543Z,18.00
2022-11-27T10:02:32.590Z,13.13
2022-11-27T10:05:17.858Z,13.33
2022-11-27T10:08:11.110Z,11.53
2022-11-27T10:10:44.776Z,9.97
2022-11-27T10:13:24.790Z,9.93
2022-11-27T10:15:57.058Z,10.27
2022-11-27T10:18:31.661Z,16.27
2022-11-27T10:21:03.354Z,11.00
2022-11-27T10:23:42.813Z,10.13
2022-11-27T10:26:17.263Z,8.63
2022-11-27T10:28:53.306Z,7.80
2022-11-27T10:31:32.856Z,8.13
2022-11-27T10:34:03.846Z,7.10
2022-11-27T10:36:36.013Z,7.90
2022-11-27T10:39:05.685Z,6.43
2022-11-27T10:41:51.368Z,6.13
2022-11-27T10:44:26.974Z,5.90
2022-11-27T10:46:59.421Z,5.13
2022-11-27T10:49:27.886Z,4.50
2022-11-27T10:51:56.612Z,4.83
2022-11-27T10:54:28.393Z,4.93
2022-11-27T10:57:35.922Z,5.43
2022-11-27T11:00:11.859Z,5.00
2022-11-27T11:02:40.887Z,5.67
2022-11-27T11:05:57.414Z,5.37
2022-11-27T11:08:18.490Z,5.43
2022-11-27T11:10:52.433Z,5.10
2022-11-27T11:13:22.839Z,10.87
2022-11-27T11:15:58.396Z,13.07
2022-11-27T11:18:29.483Z,6.60
2022-11-27T11:20:59.738Z,5.03
2022-11-27T11:23:33.399Z,4.20
2022-11-27T11:26:05.029Z,4.13
2022-11-27T11:28:39.537Z,5.30
2022-11-27T11:31:18.200Z,3.77
2022-11-27T11:33:52.546Z,3.33
2022-11-27T11:36:20.993Z,3.43
2022-11-27T11:38:50.167Z,5.27
2022-11-27T11:41:19.094Z,5.70
2022-11-27T11:43:59.800Z,5.10
2022-11-27T11:46:32.125Z,3.07
2022-11-27T11:49:03.012Z,4.00
2022-11-27T11:51:43.112Z,4.33
2022-11-27T11:54:25.045Z,4.87
2022-11-27T11:56:53.998Z,4.70
2022-11-27T11:59:29.512Z,5.07
2022-11-27T12:02:20.681Z,4.60
2022-11-27T12:05:16.807Z,4.47
2022-11-27T12:08:00.205Z,3.47
2022-11-27T12:10:32.598Z,4.80
2022-11-27T12:13:08.203Z,4.03
2022-11-27T12:15:40.718Z,4.43
2022-11-27T12:18:15.800Z,4.13
2022-11-27T12:20:52.708Z,4.97
2022-11-27T12:23:55.079Z,5.53
2022-11-27T12:26:30.411Z,3.47
2022-11-27T12:29:09.683Z,3.33
2022-11-27T12:31:50.042Z,4.43
2022-11-27T12:34:27.040Z,6.10
2022-11-27T12:37:13.733Z,5.67
2022-11-27T12:39:54.416Z,4.60
2022-11-27T12:42:27.008Z,4.40
2022-11-27T12:45:00.384Z,5.17
2022-11-27T12:47:37.328Z,4.73
2022-11-27T12:50:17.983Z,4.53
2022-11-27T12:52:49.907Z,3.07
2022-11-27T12:55:21.553Z,3.83
2022-11-27T12:57:52.266Z,4.13
2022-11-27T13:00:23.032Z,3.70
2022-11-27T13:03:00.924Z,6.03
2022-11-27T13:05:35.479Z,5.37
2022-11-27T13:08:07.217Z,5.90
2022-11-27T13:10:39.750Z,11.37
2022-11-27T13:13:12.233Z,5.40
2022-11-27T13:15:44.590Z,6.87
2022-11-27T13:18:19.219Z,5.63
2022-11-27T13:20:52.511Z,4.87
2022-11-27T13:23:21.690Z,4.30
2022-11-27T13:25:53.001Z,5.27
2022-11-27T13:28:27.704Z,6.27
2022-11-27T13:30:57.179Z,4.20
2022-11-27T13:33:36.933Z,5.33
2022-11-27T13:36:09.229Z,4.97
2022-11-27T13:38:41.920Z,4.87
2022-11-27T13:41:21.698Z,6.40
2022-11-27T13:43:50.571Z,4.53
2022-11-27T13:46:22.512Z,6.57
2022-11-27T13:48:56.470Z,4.57
2022-11-27T13:51:28.981Z,5.33
2022-11-27T13:54:09.324Z,5.97
2022-11-27T13:56:38.030Z,6.30
2022-11-27T13:59:17.800Z,5.17
2022-11-27T14:02:01.065Z,11.60
2022-11-27T14:04:31.191Z,5.67
2022-11-27T14:07:03.604Z,7.80
2022-11-27T14:09:38.277Z,7.27
2022-11-27T14:12:22.597Z,7.40
2022-11-27T14:15:03.645Z,7.07
2022-11-27T14:17:38.262Z,6.53
2022-11-27T14:20:20.468Z,4.80
2022-11-27T14:23:11.106Z,4.73
2022-11-27T14:25:40.583Z,5.23
2022-11-27T14:28:15.761Z,4.30
2022-11-27T14:30:48.416Z,6.07
2022-11-27T14:33:20.918Z,5.80
2022-11-27T14:35:50.627Z,6.00
2022-11-27T14:38:20.759Z,6.83
2022-11-27T14:40:51.659Z,6.20
2022-11-27T14:43:23.876Z,7.50
2022-11-27T14:45:56.536Z,7.13
2022-11-27T14:48:26.393Z,6.33
2022-11-27T14:51:01.106Z,8.80
2022-11-27T14:53:31.042Z,15.73
2022-11-27T14:56:00.089Z,16.03
2022-11-27T14:58:30.313Z,15.00
2022-11-27T15:01:01.495Z,12.83
2022-11-27T15:03:30.296Z,14.13
2022-11-27T15:06:00.296Z,13.83
2022-11-27T15:08:33.223Z,7.97
2022-11-27T15:11:02.181Z,21.17
2022-11-27T15:13:32.650Z,114.43
2022-11-27T15:16:04.779Z,32.10
2022-11-27T15:18:37.148Z,29.97
2022-11-27T15:21:11.465Z,18.80
2022-11-27T15:23:45.520Z,12.67
2022-11-27T15:26:18.874Z,10.10
2022-11-27T15:28:53.126Z,12.73
2022-11-27T15:31:28.551Z,10.20
2022-11-27T15:34:08.067Z,11.70
2022-11-27T15:36:39.561Z,65.00
2022-11-27T15:39:28.630Z,31.80
2022-11-27T15:41:58.562Z,17.93
2022-11-27T15:44:29.382Z,18.17
2022-11-27T15:46:59.174Z,19.90
2022-11-27T15:49:27.917Z,14.90
2022-11-27T15:51:58.243Z,13.87
2022-11-27T15:54:28.170Z,12.83
2022-11-27T15:56:56.682Z,14.63
2022-11-27T15:59:27.292Z,19.87
2022-11-27T16:01:56.130Z,26.43
2022-11-27T16:04:24.609Z,24.83
2022-11-27T16:06:53.003Z,26.67
2022-11-27T16:09:21.497Z,29.10
2022-11-27T16:11:51.361Z,38.40
2022-11-27T16:14:19.847Z,25.50
2022-11-27T16:16:48.449Z,22.37
2022-11-27T16:19:17.145Z,12.70
2022-11-27T16:21:45.650Z,16.33
2022-11-27T16:24:15.465Z,18.27
2022-11-27T16:26:44.106Z,13.40
2022-11-27T16:29:13.903Z,11.07
2022-11-27T16:31:42.479Z,9.40
2022-11-27T16:34:10.957Z,8.97
2022-11-27T16:36:41.900Z,13.70
2022-11-27T16:39:10.513Z,14.27
2022-11-27T16:41:39.279Z,14.93
2022-11-27T16:44:12.520Z,13.63
2022-11-27T16:46:44.285Z,12.53
2022-11-27T16:49:13.226Z,15.17
2022-11-27T16:51:42.346Z,20.03
2022-11-27T16:54:12.693Z,33.47
2022-11-27T16:56:41.098Z,29.57
2022-11-27T16:59:10.418Z,21.90
2022-11-27T17:01:40.893Z,20.97
2022-11-27T17:04:17.244Z,23.20
2022-11-27T17:06:46.581Z,20.57
2022-11-27T17:09:15.315Z,22.00
2022-11-27T17:11:45.342Z,22.23
2022-11-27T17:14:13.749Z,23.97
2022-11-27T17:16:42.833Z,27.27
2022-11-27T17:19:14.354Z,31.37
2022-11-27T17:21:43.339Z,26.07
2022-11-27T17:24:15.433Z,27.57
2022-11-27T17:26:45.167Z,25.70
2022-11-27T17:29:15.190Z,27.33
2022-11-27T17:31:44.172Z,27.57
2022-11-27T17:34:14.803Z,26.90
2022-11-27T17:36:44.855Z,23.77
2022-11-27T17:39:14.353Z,26.50
2022-11-27T17:41:44.526Z,26.53
2022-11-27T17:44:13.465Z,25.30
2022-11-27T17:46:44.965Z,26.90
2022-11-27T17:49:14.749Z,23.03
2022-11-27T17:51:43.154Z,19.87
2022-11-27T17:54:11.875Z,45.37
2022-11-27T17:56:40.301Z,45.40
2022-11-27T17:59:08.863Z,21.73
2022-11-27T18:01:37.420Z,20.17
2022-11-27T18:04:06.302Z,15.63
2022-11-27T18:06:36.172Z,14.60
2022-11-27T18:09:05.997Z,14.83
2022-11-27T18:11:34.909Z,16.67
2022-11-27T18:14:03.577Z,24.67
2022-11-27T18:16:33.985Z,24.53
2022-11-27T18:19:05.070Z,19.33
2022-11-27T18:21:34.985Z,17.80
2022-11-27T18:27:07.862Z,13.67
2022-11-27T18:29:37.661Z,16.30
2022-11-27T18:32:06.895Z,14.20
2022-11-27T18:34:35.490Z,16.17
2022-11-27T18:37:05.497Z,14.90
2022-11-27T18:39:35.223Z,15.40
2022-11-27T18:42:05.075Z,14.50
2022-11-27T18:44:37.242Z,16.53
2022-11-27T18:47:11.413Z,139.43
2022-11-27T18:49:40.833Z,62.43
2022-11-27T18:52:11.145Z,48.90
2022-11-27T18:54:39.659Z,44.70
2022-11-27T18:57:08.056Z,44.43
2022-11-27T18:59:36.760Z,47.77
2022-11-27T19:02:06.249Z,39.93
2022-11-27T19:04:37.399Z,35.10
2022-11-27T19:07:06.061Z,34.60
2022-11-27T19:09:35.884Z,36.13
2022-11-27T19:12:04.714Z,34.50
2022-11-27T19:14:33.405Z,33.20
2022-11-27T19:17:01.835Z,31.53
2022-11-27T19:22:21.461Z,14.00
2022-11-27T19:24:51.360Z,14.47
2022-11-27T19:27:19.900Z,12.03
2022-11-27T19:29:49.012Z,14.27
2022-11-27T19:32:17.425Z,13.37
2022-11-27T19:34:45.864Z,14.53
2022-11-27T19:37:14.300Z,14.50
2022-11-27T19:39:42.904Z,13.90
2022-11-27T19:42:12.904Z,16.13
2022-11-27T19:44:41.903Z,19.03
2022-11-27T19:47:10.609Z,17.57
2022-11-27T19:49:40.007Z,14.83
2022-11-27T19:52:08.504Z,27.47
2022-11-27T19:54:37.540Z,32.67
2022-11-27T19:57:06.047Z,36.90
2022-11-27T19:59:36.038Z,33.63
2022-11-27T20:02:04.651Z,27.43
2022-11-27T20:04:33.204Z,19.10
2022-11-27T20:07:01.730Z,16.87
2022-11-27T20:09:30.424Z,15.97
2022-11-27T20:11:59.362Z,13.90
2022-11-27T20:14:27.990Z,14.50
2022-11-27T20:16:57.934Z,15.67
2022-11-27T20:19:26.583Z,17.73
2022-11-27T20:21:55.063Z,18.00
2022-11-27T20:24:23.493Z,21.77
2022-11-27T20:26:52.023Z,27.23
2022-11-27T20:29:20.695Z,26.40
2022-11-27T20:31:49.127Z,29.57
2022-11-27T20:34:22.716Z,22.13
2022-11-27T20:36:51.878Z,16.00
2022-11-27T20:39:21.850Z,18.63
2022-11-27T20:41:51.918Z,18.73
2022-11-27T20:44:22.306Z,17.07
2022-11-27T20:46:51.204Z,19.40
2022-11-27T20:49:21.133Z,20.17
2022-11-27T20:51:50.640Z,31.30
2022-11-27T20:54:19.549Z,42.67
2022-11-27T20:56:51.018Z,31.23
2022-11-27T20:59:19.931Z,23.53
2022-11-27T21:01:48.643Z,20.20
2022-11-27T21:04:24.203Z,20.13
2022-11-27T21:06:53.167Z,20.57
2022-11-27T21:09:22.020Z,18.67
2022-11-27T21:11:50.472Z,16.40
2022-11-27T21:14:19.577Z,14.17
2022-11-27T21:16:51.589Z,15.73
2022-11-27T21:19:22.672Z,13.70
2022-11-27T21:21:51.567Z,15.10
2022-11-27T21:24:20.930Z,15.20
2022-11-27T21:26:49.980Z,14.60
2022-11-27T21:29:24.686Z,13.47
2022-11-27T21:31:54.037Z,12.37
2022-11-27T21:34:24.742Z,13.30
2022-11-27T21:36:53.230Z,13.67
2022-11-27T21:39:22.046Z,13.57
2022-11-27T21:41:51.802Z,14.33
2022-11-27T21:44:20.442Z,16.10
2022-11-27T21:46:49.749Z,12.17
2022-11-27T21:49:20.654Z,71.00
2022-11-27T21:51:53.515Z,27.90
2022-11-27T21:54:22.216Z,13.27
2022-11-27T21:56:52.778Z,11.50
2022-11-27T21:59:21.540Z,14.23
2022-11-27T22:01:50.236Z,23.23
2022-11-27T22:04:18.817Z,25.20
2022-11-27T22:06:48.137Z,24.77
2022-11-27T22:09:18.136Z,22.07
2022-11-27T22:11:47.634Z,17.67
2022-11-27T22:14:17.214Z,18.27
2022-11-27T22:16:47.103Z,15.10
2022-11-27T22:19:16.325Z,15.50
2022-11-27T22:21:45.503Z,13.73
2022-11-27T22:24:18.850Z,13.77
2022-11-27T22:26:49.948Z,14.47
2022-11-27T22:29:18.380Z,13.47
2022-11-27T22:31:46.917Z,13.90
2022-11-27T22:34:16.683Z,13.97
2022-11-27T22:36:45.190Z,14.73
2022-11-27T22:39:13.609Z,12.83
2022-11-27T22:41:42.515Z,12.73
2022-11-27T22:44:15.493Z,16.87
2022-11-27T22:46:44.359Z,20.80
2022-11-27T22:49:15.405Z,14.87
2022-11-27T22:51:44.130Z,13.33
2022-11-27T22:54:16.959Z,12.30
2022-11-27T22:56:46.607Z,12.27
2022-11-27T22:59:34.083Z,12.73
2022-11-27T23:02:03.753Z,12.40
2022-11-27T23:04:32.569Z,10.73
2022-11-27T23:07:01.443Z,11.83
2022-11-27T23:09:30.157Z,13.20
2022-11-27T23:11:58.704Z,12.07
2022-11-27T23:14:29.013Z,12.70
2022-11-27T23:16:57.467Z,18.53
2022-11-27T23:19:26.080Z,57.50
2022-11-27T23:21:54.591Z,33.37
2022-11-27T23:24:23.021Z,21.70
2022-11-27T23:26:51.487Z,20.07
2022-11-27T23:29:20.069Z,20.10
2022-11-27T23:31:49.925Z,20.57
2022-11-27T23:34:18.526Z,19.67
2022-11-27T23:36:46.964Z,16.40
2022-11-27T23:39:15.969Z,16.80
2022-11-27T23:41:44.754Z,12.57
2022-11-27T23:44:13.351Z,11.07
2022-11-27T23:46:41.822Z,9.63
2022-11-27T23:49:11.705Z,10.23
2022-11-27T23:51:40.213Z,9.70
2022-11-27T23:54:10.599Z,12.73
2022-11-27T23:56:40.793Z,10.83
2022-11-27T23:59:09.255Z,11.50
